Baltimore, MD

6:55 AM EST on February 11, 2016 (GMT -0500)
Canton | | Change Station
CLOSE
Current Station
Personal Weather Station
Location: Baltimore, MD
Elevation: 56 ft
Nearby Weather Stations

Elev 56 ft 39.28 °N, 76.57 °W | Updated 7 seconds ago

Mostly Cloudy
Mostly Cloudy
21.0 °F
Feels Like 9 °F
N
12.1
Wind Variable Wind from West
Gusts 17.4 mph

Today
High -- | Low -- °F
--% Chance of Precip.
Yesterday
High -- | Low -- °F
Precip. -- in
Pressure 30.01 in
Visibility 10.0 miles
Clouds Scattered Clouds 19000 ft
Windchill 9 °F
Dew Point -4 °F
Humidity 32%
Rainfall 0.00 in
Snow Depth Not available.
7:03 AM 5:37 PM
Waxing Crescent, 11% visible
METAR KBWI 111054Z 27008KT 10SM SCT190 M07/M14 A3000 RMK AO2 SLP161 T10671144
Pressure 30.01 in
Visibility 10.0 miles
Clouds Scattered Clouds 19000 ft
Windchill 9 °F
Dew Point -4 °F
Humidity 32%
Rainfall 0.00 in
Snow Depth Not available.
7:03 AM 5:37 PM
Waxing Crescent, 11% visible
METAR KBWI 111054Z 27008KT 10SM SCT190 M07/M14 A3000 RMK AO2 SLP161 T10671144

10-Day Weather Forecast

Almanac

Astronomy

Feb. 11, 2016 Rise Set
Actual Time
Civil Twilight
Nautical Twilight
Astronomical Twilight
Moon
Length of Visible Light
Length of Day
Tomorrow will be .
, % of the Moon is Illuminated

Today's Extremes

State Highs State Lows

Community

WunderPhotos

Upload Photos

1,892,030 photos uploaded!

WunderBlog® & News

Nearby

Air Quality

  Air Quality AQ Index Pollutant
Not available.

Snow Depth

Station Depth Elevation

Earthquake Activity

City Distance Mag. Time & Date
Minimum magnitude displayed is 2.5.

Coastal Water Temperatures

Place Temperature

Stations

Nearby Weather Stations

Station Location Temp. Windchill Dew Point Humidity Wind Precip. Elev Updated Type
                   

Watches & Warnings

There are currently no watches in effect.